createdAt,value
2023-04-17T00:01:15.848Z,59.20
2023-04-17T00:04:14.323Z,59.90
2023-04-17T00:07:09.629Z,61.40
2023-04-17T00:10:03.788Z,62.50
2023-04-17T00:12:57.937Z,63.10
2023-04-17T00:15:52.138Z,63.70
2023-04-17T00:18:46.534Z,64.20
2023-04-17T00:21:40.694Z,64.90
2023-04-17T00:24:34.849Z,65.90
2023-04-17T00:27:28.982Z,67.20
2023-04-17T00:30:23.095Z,67.50
2023-04-17T00:33:17.443Z,67.40
2023-04-17T00:36:14.869Z,68.10
2023-04-17T00:39:09.080Z,67.50
2023-04-17T00:42:03.890Z,68.50
2023-04-17T00:44:58.567Z,68.50
2023-04-17T00:47:54.493Z,69.80
2023-04-17T00:50:48.956Z,70.00
2023-04-17T00:53:43.374Z,69.40
2023-04-17T00:56:37.834Z,70.70
2023-04-17T00:59:33.843Z,70.40
2023-04-17T01:02:28.233Z,70.20
2023-04-17T01:05:22.639Z,70.90
2023-04-17T01:08:17.140Z,69.80
2023-04-17T01:11:14.174Z,69.60
2023-04-17T01:14:08.361Z,69.80
2023-04-17T01:17:03.581Z,70.30
2023-04-17T01:19:58.782Z,71.80
2023-04-17T01:22:55.889Z,72.10
2023-04-17T01:25:52.378Z,71.20
2023-04-17T01:28:51.883Z,71.00
2023-04-17T01:31:46.096Z,69.50
2023-04-17T01:34:40.299Z,70.50
2023-04-17T01:37:34.475Z,71.20
2023-04-17T01:40:28.647Z,70.80
2023-04-17T01:43:22.788Z,70.80
2023-04-17T01:46:17.168Z,70.70
2023-04-17T01:49:12.861Z,70.40
2023-04-17T01:52:07.444Z,71.20
2023-04-17T01:55:01.761Z,71.30
2023-04-17T01:57:55.926Z,70.30
2023-04-17T02:00:50.984Z,71.10
2023-04-17T02:03:45.541Z,71.30
2023-04-17T02:06:40.008Z,71.40
2023-04-17T02:09:34.389Z,71.50
2023-04-17T02:12:28.492Z,71.30
2023-04-17T02:15:22.705Z,70.50
2023-04-17T02:18:16.896Z,70.10
2023-04-17T02:21:11.100Z,70.20
2023-04-17T02:24:05.280Z,70.90
2023-04-17T02:26:59.465Z,70.60
2023-04-17T02:29:53.600Z,68.80
2023-04-17T02:32:48.032Z,69.60
2023-04-17T02:35:42.674Z,69.70
2023-04-17T02:38:38.878Z,68.60
2023-04-17T02:41:32.992Z,69.00
2023-04-17T02:44:27.136Z,68.40
2023-04-17T02:47:21.434Z,67.50
2023-04-17T02:50:15.565Z,67.40
2023-04-17T02:53:10.218Z,68.60
2023-04-17T02:56:04.468Z,68.10
2023-04-17T02:58:58.737Z,67.50
2023-04-17T03:01:53.104Z,66.90
2023-04-17T03:04:47.252Z,66.20
2023-04-17T03:07:41.744Z,67.00
2023-04-17T03:10:38.337Z,66.10
2023-04-17T03:13:34.545Z,66.60
2023-04-17T03:16:28.712Z,66.30
2023-04-17T03:19:22.898Z,67.10
2023-04-17T03:22:17.007Z,66.90
2023-04-17T03:25:11.572Z,66.80
2023-04-17T03:28:05.793Z,65.50
2023-04-17T03:31:00.784Z,65.70
2023-04-17T03:33:54.925Z,65.80
2023-04-17T03:36:49.388Z,66.00
2023-04-17T03:39:43.477Z,65.20
2023-04-17T03:42:37.948Z,64.80
2023-04-17T03:45:32.170Z,64.60
2023-04-17T03:48:26.551Z,64.70
2023-04-17T03:51:20.637Z,64.90
2023-04-17T03:54:14.768Z,64.70
2023-04-17T03:57:08.983Z,64.70
2023-04-17T04:00:03.182Z,64.40
2023-04-17T04:02:57.404Z,64.10
2023-04-17T04:05:51.751Z,63.50
2023-04-17T04:08:46.546Z,63.00
2023-04-17T04:11:40.638Z,64.20
2023-04-17T04:14:34.745Z,63.70
2023-04-17T04:17:29.030Z,63.40
2023-04-17T04:20:25.642Z,63.30
2023-04-17T04:23:22.121Z,62.50
2023-04-17T04:26:18.105Z,63.00
2023-04-17T04:29:12.983Z,63.10
2023-04-17T04:32:10.760Z,63.60
2023-04-17T04:35:04.507Z,62.90
2023-04-17T04:38:03.309Z,62.10
2023-04-17T04:41:02.653Z,62.40
2023-04-17T04:43:56.939Z,62.40
2023-04-17T04:46:51.088Z,62.60
2023-04-17T04:49:45.212Z,62.20
2023-04-17T04:52:39.506Z,61.30
2023-04-17T04:55:33.588Z,61.20
2023-04-17T04:58:27.824Z,61.10
2023-04-17T05:01:22.310Z,61.40
2023-04-17T05:04:16.731Z,61.20
2023-04-17T05:07:10.949Z,61.60
2023-04-17T05:10:05.422Z,60.40
2023-04-17T05:12:59.613Z,60.60
2023-04-17T05:15:53.891Z,60.20
2023-04-17T05:18:49.197Z,60.70
2023-04-17T05:21:43.370Z,60.20
2023-04-17T05:24:37.547Z,59.40
2023-04-17T05:27:32.009Z,59.80
2023-04-17T05:30:26.149Z,59.70
2023-04-17T05:33:20.317Z,59.50
2023-04-17T05:36:14.503Z,59.90
2023-04-17T05:39:09.120Z,59.40
2023-04-17T05:42:03.305Z,59.30
2023-04-17T05:44:57.587Z,59.40
2023-04-17T05:47:51.782Z,59.60
2023-04-17T05:50:46.046Z,59.40
2023-04-17T05:53:40.412Z,58.60
2023-04-17T05:56:34.523Z,58.40
2023-04-17T05:59:28.639Z,58.40
2023-04-17T06:02:22.871Z,58.60
2023-04-17T06:05:17.595Z,58.80
2023-04-17T06:08:11.764Z,59.50
2023-04-17T06:11:05.865Z,59.20
2023-04-17T06:14:00.191Z,59.30
2023-04-17T06:16:54.338Z,58.90
2023-04-17T06:19:48.554Z,58.90
2023-04-17T06:22:45.451Z,59.00
2023-04-17T06:25:39.653Z,59.20
2023-04-17T06:28:33.837Z,58.50
2023-04-17T06:31:28.353Z,58.80
2023-04-17T06:34:23.076Z,58.70
2023-04-17T06:37:17.445Z,58.50
2023-04-17T06:40:13.519Z,58.30
2023-04-17T06:43:07.949Z,57.90
2023-04-17T06:46:02.281Z,57.80
2023-04-17T06:48:59.202Z,58.30
2023-04-17T06:51:53.403Z,58.20
2023-04-17T06:54:47.575Z,58.50
2023-04-17T06:57:41.861Z,56.80
2023-04-17T07:00:36.134Z,56.10
2023-04-17T07:03:30.354Z,55.40
2023-04-17T07:06:28.005Z,56.20
2023-04-17T07:09:22.149Z,55.50
2023-04-17T07:12:17.272Z,55.40
2023-04-17T07:15:12.316Z,55.50
2023-04-17T07:18:06.606Z,56.20
2023-04-17T07:21:00.916Z,55.70
2023-04-17T07:23:55.140Z,56.10
2023-04-17T07:26:50.683Z,55.60
2023-04-17T07:29:45.641Z,55.70
2023-04-17T07:32:39.774Z,55.50
2023-04-17T07:35:33.984Z,55.80
2023-04-17T07:38:28.270Z,55.60
2023-04-17T07:41:22.458Z,55.50
2023-04-17T07:44:17.226Z,55.40
2023-04-17T07:47:11.601Z,55.30
2023-04-17T07:50:06.017Z,55.40
2023-04-17T07:53:00.786Z,55.90
2023-04-17T07:55:55.819Z,56.00
2023-04-17T07:58:53.161Z,56.40
2023-04-17T08:01:47.298Z,56.50
2023-04-17T08:04:41.567Z,56.60
2023-04-17T08:07:35.806Z,57.00
2023-04-17T08:10:30.552Z,57.30
2023-04-17T08:13:24.715Z,57.70
2023-04-17T08:16:19.273Z,57.80
2023-04-17T08:19:13.544Z,58.10
2023-04-17T08:22:08.533Z,58.60
2023-04-17T08:25:04.260Z,59.00
2023-04-17T08:28:00.763Z,60.00
2023-04-17T08:30:55.030Z,61.10
2023-04-17T08:33:51.279Z,61.50
2023-04-17T08:36:49.085Z,61.40
2023-04-17T08:39:43.282Z,61.40
2023-04-17T08:42:42.851Z,61.60
2023-04-17T08:45:39.019Z,61.80
2023-04-17T08:48:33.357Z,62.10
2023-04-17T08:51:29.295Z,62.20
2023-04-17T08:54:23.480Z,62.90
2023-04-17T08:57:17.703Z,63.30
2023-04-17T09:00:13.462Z,63.70
2023-04-17T09:03:10.200Z,64.00
2023-04-17T09:06:04.524Z,64.30
2023-04-17T09:09:01.546Z,64.60
2023-04-17T09:12:11.980Z,64.70
2023-04-17T09:15:17.879Z,65.00
2023-04-17T09:18:34.617Z,65.50
2023-04-17T09:21:30.327Z,65.90
2023-04-17T09:24:38.810Z,66.20
2023-04-17T09:27:33.094Z,66.80
2023-04-17T09:30:28.635Z,67.20
2023-04-17T09:33:22.752Z,67.70
2023-04-17T09:36:23.765Z,68.00
2023-04-17T09:39:25.005Z,68.60
2023-04-17T09:42:19.152Z,68.80
2023-04-17T09:45:23.694Z,69.20
2023-04-17T09:48:18.729Z,69.50
2023-04-17T09:51:13.131Z,69.90
2023-04-17T09:54:10.561Z,70.10
2023-04-17T09:57:05.708Z,70.30
2023-04-17T10:00:02.606Z,70.60
2023-04-17T10:02:59.037Z,70.70
2023-04-17T10:05:53.472Z,71.50
2023-04-17T10:08:48.395Z,71.60
2023-04-17T10:11:46.158Z,71.60
2023-04-17T10:14:41.409Z,71.90
2023-04-17T10:17:35.945Z,72.20
2023-04-17T10:20:30.877Z,72.60
2023-04-17T10:23:30.968Z,73.20
2023-04-17T10:26:30.723Z,73.50
2023-04-17T10:29:56.720Z,73.50
2023-04-17T10:33:20.966Z,74.10
2023-04-17T10:36:40.925Z,74.60
2023-04-17T10:39:58.045Z,74.90
2023-04-17T10:43:13.665Z,75.00
2023-04-17T10:46:12.214Z,74.90
2023-04-17T10:49:06.692Z,75.00
2023-04-17T10:52:00.896Z,75.20
2023-04-17T10:55:18.297Z,75.60
2023-04-17T10:58:16.538Z,75.80
2023-04-17T11:01:13.785Z,75.60
2023-04-17T11:04:08.409Z,75.60
2023-04-17T11:07:03.154Z,75.70
2023-04-17T11:09:57.333Z,76.10
2023-04-17T11:12:57.682Z,76.90
2023-04-17T11:15:53.336Z,77.10
2023-04-17T11:18:48.346Z,77.40
2023-04-17T11:21:44.961Z,77.50
2023-04-17T11:24:39.176Z,78.40
2023-04-17T11:27:34.696Z,78.00
2023-04-17T11:30:33.006Z,78.10
2023-04-17T11:33:27.284Z,77.90
2023-04-17T11:36:23.362Z,77.90
2023-04-17T11:39:17.926Z,78.20
2023-04-17T11:42:12.070Z,78.40
2023-04-17T11:45:10.336Z,78.50
2023-04-17T11:48:05.397Z,78.40
2023-04-17T11:51:07.840Z,78.30
2023-04-17T11:54:02.351Z,78.60
2023-04-17T11:57:04.463Z,78.70
2023-04-17T11:59:58.675Z,78.90
2023-04-17T12:02:53.115Z,79.10
2023-04-17T12:06:01.105Z,79.40
2023-04-17T12:08:56.885Z,79.50
2023-04-17T12:11:51.101Z,79.70
2023-04-17T12:14:45.313Z,79.30
2023-04-17T12:17:39.528Z,79.50
2023-04-17T12:20:38.149Z,79.00
2023-04-17T12:23:32.289Z,79.30
2023-04-17T12:26:26.582Z,79.00
2023-04-17T12:29:32.244Z,79.10
2023-04-17T12:32:35.236Z,79.70
2023-04-17T12:35:29.757Z,80.30
2023-04-17T12:38:26.696Z,80.50
2023-04-17T12:41:21.245Z,80.50
2023-04-17T12:44:15.430Z,80.50
2023-04-17T12:47:09.644Z,80.60
2023-04-17T12:50:04.126Z,80.80
2023-04-17T12:52:58.251Z,80.80
2023-04-17T12:55:52.721Z,80.70
2023-04-17T12:58:46.881Z,80.80
2023-04-17T13:01:41.093Z,81.20
2023-04-17T13:04:35.436Z,81.20
2023-04-17T13:07:31.103Z,81.20
2023-04-17T13:10:25.505Z,81.10
2023-04-17T13:13:19.990Z,81.00
2023-04-17T13:16:14.291Z,81.40
2023-04-17T13:19:08.676Z,81.60
2023-04-17T13:22:03.403Z,82.10
2023-04-17T13:24:57.557Z,82.70
2023-04-17T13:27:51.824Z,83.30
2023-04-17T13:30:46.027Z,83.90
2023-04-17T13:33:41.467Z,84.10
2023-04-17T13:36:36.077Z,84.20
2023-04-17T13:39:30.309Z,84.10
2023-04-17T13:42:24.517Z,84.20
2023-04-17T13:45:18.831Z,84.40
2023-04-17T13:48:13.440Z,84.60
2023-04-17T13:51:07.660Z,84.80
2023-04-17T13:54:02.077Z,85.00
2023-04-17T13:56:56.412Z,85.20
2023-04-17T13:59:50.744Z,85.40
2023-04-17T14:02:44.980Z,85.70
2023-04-17T14:05:39.327Z,86.40
2023-04-17T14:08:33.635Z,86.80
2023-04-17T14:11:27.907Z,87.40
2023-04-17T14:14:22.180Z,87.70
2023-04-17T14:17:16.434Z,88.10
2023-04-17T14:20:12.301Z,88.10
2023-04-17T14:23:06.679Z,88.00
2023-04-17T14:26:01.071Z,87.80
2023-04-17T14:28:55.398Z,87.60
2023-04-17T14:31:49.636Z,87.50
2023-04-17T14:34:43.846Z,87.60
2023-04-17T14:37:38.909Z,87.20
2023-04-17T14:40:33.478Z,87.40
2023-04-17T14:43:27.648Z,87.80
2023-04-17T14:46:21.907Z,87.50
2023-04-17T14:49:16.074Z,87.40
2023-04-17T14:52:10.246Z,87.70
2023-04-17T14:55:04.384Z,88.00
2023-04-17T14:57:58.621Z,88.30
2023-04-17T15:00:52.851Z,89.00
2023-04-17T15:03:48.541Z,88.70
2023-04-17T15:06:44.124Z,88.50
2023-04-17T15:09:38.302Z,89.20
2023-04-17T15:12:32.480Z,88.80
2023-04-17T15:15:27.178Z,89.10
2023-04-17T15:18:21.385Z,89.20
2023-04-17T15:21:17.114Z,89.20
2023-04-17T15:24:11.275Z,89.90
2023-04-17T15:27:05.415Z,90.00
2023-04-17T15:29:59.503Z,90.20
2023-04-17T15:32:59.103Z,90.10
2023-04-17T15:35:57.424Z,90.20
2023-04-17T15:38:51.636Z,90.20
2023-04-17T15:41:45.758Z,90.50
2023-04-17T15:44:40.074Z,90.60
2023-04-17T15:47:34.181Z,90.50
2023-04-17T15:50:28.385Z,90.60
2023-04-17T15:53:22.624Z,90.60
2023-04-17T15:56:17.016Z,90.60
2023-04-17T15:59:11.388Z,90.60
2023-04-17T16:02:05.794Z,90.60
2023-04-17T16:05:00.100Z,90.70
2023-04-17T16:07:54.263Z,90.80
2023-04-17T16:10:48.366Z,90.70
2023-04-17T16:13:42.711Z,90.70
2023-04-17T16:16:39.337Z,90.70
2023-04-17T16:19:33.708Z,90.70
2023-04-17T16:22:28.027Z,90.90
2023-04-17T16:25:22.233Z,90.90
2023-04-17T16:28:16.440Z,91.00
2023-04-17T16:31:11.107Z,91.20
2023-04-17T16:34:05.301Z,91.20
2023-04-17T16:36:59.631Z,91.40
2023-04-17T16:39:53.815Z,91.50
2023-04-17T16:42:48.009Z,91.50
2023-04-17T16:45:43.137Z,91.40
2023-04-17T16:48:37.457Z,91.50
2023-04-17T16:51:32.870Z,91.50
2023-04-17T16:54:27.419Z,91.50
2023-04-17T16:57:22.172Z,92.00
2023-04-17T17:00:16.726Z,91.60
2023-04-17T17:03:11.028Z,91.60
2023-04-17T17:06:08.169Z,91.80
2023-04-17T17:09:02.678Z,91.90
2023-04-17T17:11:58.015Z,91.90
2023-04-17T17:14:52.155Z,92.10
2023-04-17T17:17:46.358Z,92.30
2023-04-17T17:20:40.529Z,92.40
2023-04-17T17:23:35.089Z,92.40
2023-04-17T17:26:29.218Z,92.50
2023-04-17T17:29:23.403Z,92.60
2023-04-17T17:32:17.970Z,92.70
2023-04-17T17:35:12.359Z,92.90
2023-04-17T17:38:06.758Z,92.90
2023-04-17T17:41:01.041Z,92.90
2023-04-17T17:43:57.272Z,93.00
2023-04-17T17:46:51.566Z,93.10
2023-04-17T17:49:45.710Z,93.10
2023-04-17T17:52:39.902Z,93.00
2023-04-17T17:55:38.343Z,92.90
2023-04-17T17:58:32.546Z,93.00
2023-04-17T18:01:26.775Z,93.10
2023-04-17T18:04:21.360Z,93.10
2023-04-17T18:07:15.722Z,93.20
2023-04-17T18:10:10.496Z,93.10
2023-04-17T18:13:04.744Z,93.20
2023-04-17T18:15:58.886Z,93.30
2023-04-17T18:18:53.024Z,93.40
2023-04-17T18:21:47.786Z,93.30
2023-04-17T18:24:42.066Z,93.40
2023-04-17T18:27:39.227Z,93.40
2023-04-17T18:30:33.693Z,93.40
2023-04-17T18:33:28.098Z,93.30
2023-04-17T18:36:22.352Z,93.30
2023-04-17T18:39:16.669Z,93.40
2023-04-17T18:42:13.205Z,93.40
2023-04-17T18:45:08.120Z,93.20
2023-04-17T18:48:02.253Z,93.40
2023-04-17T18:50:56.400Z,93.40
2023-04-17T18:53:51.446Z,93.30
2023-04-17T18:56:46.256Z,93.30
2023-04-17T18:59:42.656Z,93.30
2023-04-17T19:02:38.242Z,93.30
2023-04-17T19:05:32.464Z,93.30
2023-04-17T19:08:26.812Z,93.40
2023-04-17T19:11:20.911Z,93.40
2023-04-17T19:14:15.265Z,93.30
2023-04-17T19:17:09.602Z,93.40
2023-04-17T19:20:04.003Z,93.60
2023-04-17T19:23:00.461Z,93.50
2023-04-17T19:25:56.155Z,93.60
2023-04-17T19:28:50.305Z,93.60
2023-04-17T19:31:44.842Z,93.70
2023-04-17T19:34:39.334Z,93.70
2023-04-17T19:37:34.405Z,93.80
2023-04-17T19:40:28.747Z,93.90
2023-04-17T19:43:22.888Z,94.00
2023-04-17T19:46:17.377Z,93.90
2023-04-17T19:49:13.414Z,94.00
2023-04-17T19:52:07.817Z,94.10
2023-04-17T19:55:02.883Z,94.20
2023-04-17T19:57:59.888Z,94.20
2023-04-17T20:00:54.231Z,94.30
2023-04-17T20:03:48.546Z,94.50
2023-04-17T20:06:42.934Z,94.70
2023-04-17T20:09:37.122Z,95.00
2023-04-17T20:12:31.312Z,95.30
2023-04-17T20:15:25.430Z,95.30
2023-04-17T20:18:19.905Z,95.30
2023-04-17T20:21:14.711Z,95.20
2023-04-17T20:24:08.995Z,95.20
2023-04-17T20:27:03.300Z,95.10
2023-04-17T20:29:57.511Z,95.30
2023-04-17T20:32:52.213Z,95.40
2023-04-17T20:35:46.505Z,95.40
2023-04-17T20:38:40.979Z,95.40
2023-04-17T20:41:36.782Z,95.40
2023-04-17T20:44:33.796Z,95.30
2023-04-17T20:47:27.974Z,95.30
2023-04-17T20:50:22.652Z,95.60
2023-04-17T20:53:17.074Z,95.20
2023-04-17T20:56:11.625Z,95.10
2023-04-17T20:59:05.794Z,95.10
2023-04-17T21:01:59.959Z,95.20
2023-04-17T21:04:54.263Z,95.10
2023-04-17T21:07:49.583Z,95.10
2023-04-17T21:10:45.620Z,95.00
2023-04-17T21:13:39.757Z,95.10
2023-04-17T21:16:34.026Z,95.10
2023-04-17T21:19:29.060Z,95.10
2023-04-17T21:22:23.303Z,95.30
2023-04-17T21:25:17.531Z,95.30
2023-04-17T21:28:11.759Z,95.60
2023-04-17T21:31:09.716Z,96.20
2023-04-17T21:34:03.937Z,96.10
2023-04-17T21:36:59.866Z,96.30
2023-04-17T21:39:53.994Z,96.50
2023-04-17T21:42:48.160Z,96.70
2023-04-17T21:45:42.335Z,96.90
2023-04-17T21:48:36.534Z,97.00
2023-04-17T21:51:30.660Z,97.00
2023-04-17T21:54:26.548Z,96.80
2023-04-17T21:57:20.704Z,96.60
2023-04-17T22:00:15.661Z,96.60
2023-04-17T22:03:10.189Z,96.60
2023-04-17T22:06:04.670Z,97.40
2023-04-17T22:08:58.828Z,98.20
2023-04-17T22:11:52.984Z,97.20
2023-04-17T22:14:47.158Z,96.00
2023-04-17T22:17:41.360Z,93.60
2023-04-17T22:20:35.689Z,91.00
2023-04-17T22:23:29.856Z,85.60
2023-04-17T22:26:24.148Z,80.70
2023-04-17T22:29:18.299Z,74.30
2023-04-17T22:32:12.618Z,68.30
2023-04-17T22:35:07.773Z,66.60
2023-04-17T22:38:02.171Z,67.10
2023-04-17T22:40:57.265Z,68.70
2023-04-17T22:43:51.781Z,70.10
2023-04-17T22:46:46.034Z,71.60
2023-04-17T22:49:40.207Z,72.60
2023-04-17T22:52:34.356Z,73.50
2023-04-17T22:55:28.652Z,73.40
2023-04-17T22:58:22.875Z,73.00
2023-04-17T23:01:17.268Z,76.40
2023-04-17T23:04:11.752Z,73.00
2023-04-17T23:07:06.645Z,67.00
2023-04-17T23:10:00.779Z,60.00
2023-04-17T23:12:54.889Z,56.30
2023-04-17T23:15:49.099Z,52.40
2023-04-17T23:18:43.301Z,50.40
2023-04-17T23:21:37.516Z,49.70
2023-04-17T23:24:37.657Z,47.30
2023-04-17T23:27:36.163Z,45.80
2023-04-17T23:30:30.803Z,44.00
2023-04-17T23:33:25.213Z,45.00
2023-04-17T23:36:19.511Z,46.40
2023-04-17T23:39:13.715Z,47.70
2023-04-17T23:42:09.115Z,49.80
2023-04-17T23:45:03.267Z,51.20
2023-04-17T23:47:57.827Z,52.80
2023-04-17T23:50:52.092Z,54.20
2023-04-17T23:53:46.661Z,54.90
2023-04-17T23:56:40.782Z,55.60
2023-04-17T23:59:35.005Z,56.60
